Warning: Javascript must be enabled to use all the features on this page!


Page Loading - Please Wait...

Click to hideNews Bulletins

Peak Streamflow for the Nation

USGS 01531000 CHEMUNG RIVER AT CHEMUNG NY

Chemung County, New York
Hydrologic Unit Code 02050105
Latitude  42°00'08", Longitude  76°38'05" NAD83
Drainage area 2,506  square miles
Contributing drainage area 2,506  square miles
Gage datum 778.66 feet above NAVD88
Output formats
Table
Graph
Tab-separated file
peakfq (watstore) format
Reselect output format
Water
Year
Date Gage
Height
(feet)
Stream-
flow
(cfs)
1904 1904-03-08 17.602 63,200
1905 1905-03-20 14.90 44,600
1906 1906-03-28 12.80 32,700
1907 1907-04-27 10.70 22,700
1908 1908-02-16 14.95 44,900
1909 1909-05-02 15.85 50,700
1910 1910-04-25 16.76 57,000
1911 1911-04-07 9.70 18,000
1912 1912-03-30 15.98 51,600
1913 1913-03-26 16.50 52,500
1914 1914-03-29 17.00 59,900
1915 1915-02-25 16.42 55,700
1916 1916-06-18 18.20 68,900
1917 1917-03-12 11.70 27,600
1918 1918-03-15 17.96 67,000
1919 1919-05-23 16.78 58,300
1920 1920-03-13 17.18 61,200
1921 1921-02-17 12.00 29,000
1922 1922-03-08 12.36 30,800
1923 1923-03-05 13.65 37,900
1924 1924-04-07 15.55 49,700
1925 1925-02-12 15.20 47,400
1926 1926-03-26 12.10 29,500
1927 1926-11-17 14.10 40,500
1928 1927-11-18 15.32 47,900
1929 1929-04-21 17.10 57,400
1930 1930-02-26 11.70 26,300
1931 1931-03-29 10.69 21,600
1932 1932-04-01 14.13 39,400
1933 1933-08-25 13.03 33,400
1934 1934-03-04 13.00 32,300
1935 1935-07-09 19.45 86,000
1936 1936-03-12 19.57 87,300
1937 1937-08-27 15.18 44,000
1938 1937-11-14 14.58 40,100
1939 1939-02-21 17.80 68,000
1940 1940-04-01 19.62 87,800
1941 1941-04-06 16.92 55,300
1942 1942-03-10 17.47 60,700
1943 1942-12-31 19.04 77,400
1944 1944-05-08 14.40 36,900
1945 1945-03-04 16.79 54,100
1946 1946-05-28 23.97 132,000
1947 1947-04-06 18.01 66,500
1948 1948-03-22 18.26 69,300
1949 1949-01-06 10.86 20,500
1950 1950-03-29 19.12 80,300
1951 1951-03-31 19.19 81,300
1952 1952-03-12 17.17 54,300
1953 1953-03-25 16.09 46,000
1954 1954-03-02 14.70 37,300
1955 1955-03-02 14.02 33,900
1956 1955-10-15 20.13 89,000
1957 1957-04-06 15.10 39,700
1958 1958-04-07 16.94 52,400
1959 1959-01-22 17.90 61,000
1960 1960-03-31 19.02 73,500
1961 1961-04-26 18.24 64,400
1962 1962-04-01 13.10 29,400
1963 1963-03-18 14.91 38,600
1964 1964-03-06 20.44 93,800
1965 1965-02-09 9.112 13,900
1966 1966-02-14 13.76 32,600
1967 1967-03-29 12.91 28,600
1968 1968-03-24 13.55 30,000
1969 1969-04-06 12.25 26,000
1970 1970-04-03 14.15 34,600
1971 1971-03-16 15.91 44,800
1972 1972-06-23 31.62 189,0009
1973 1972-12-07 15.49 41,900
1974 1974-02-23 13.11 29,400
1975 1975-09-27 24.10 125,000
1976 1976-02-18 17.07 52,500
1977 1977-09-25 13.84 33,800
1978 1978-03-22 16.25 47,200
1979 1979-03-06 18.24 61,500
1980 1979-11-27 15.04 40,2005
1981 1981-02-24 12.52 27,9005
1982 1982-06-06 14.26 36,0005
1983 1983-04-16 11.52 23,5005
1984 1984-02-15 18.20 61,2005
1985 1985-02-25 10.77 20,4005
1986 1986-03-15 15.21 41,2005
1987 1987-04-05 12.24 26,6005
1988 1988-05-20 12.29 26,8005
1989 1989-05-11 14.63 37,9005
1990 1990-02-17 12.00 25,5005
1991 1990-10-24 15.56 43,2005
1992 1992-03-27 13.69 33,2005
1993 1993-04-01 15.61 43,5005
1994 1994-03-25 16.452 48,6005
1995 1995-01-22 13.79 33,5005
1996 1996-01-20 19.71 77,8005
1997 1996-11-09 18.52 67,5005
1998 1998-01-08 15.18 44,0005
1999 1999-01-24 12.54 29,2005
2000 2000-02-28 12.79 30,5005
2001 2001-04-09 13.37 33,6005
2002 2002-06-06 11.40 23,6005
2003 2003-07-23 14.00 37,1005
2004 2004-09-18 18.45 66,9005
2005 2005-04-03 17.40 58,6005
2006 2005-11-30 15.83 48,1005
2007 2007-03-15 16.63 53,3005
2008 2008-02-07 15.43 45,6005
2009 2009-03-09 12.26 27,8005
2010 2010-01-26 15.05 43,2005
2011 2011-04-28 15.79 47,9005
2012 2011-10-21 9.98 18,2005
2013 2013-01-31 12.95 31,3005
2014 2014-05-17 14.63 40,7005
2015 2015-04-10 11.07 22,6005
2016 2016-02-25 12.81 30,6005
2017 2017-05-07 12.64 29,7005
2018 2018-09-18 14.01 34,3005
2019 2018-12-22 13.86 33,6005
2020 2020-05-01 13.70 35,4005
2021 2020-12-25 14.182 38,1005
2022 2021-10-30 16.80 49,5005
?
  Peak Gage-Height Qualification Codes.
?
  Peak Streamflow Qualification Codes.